sensor_id;sensor_type;location;lat;lon;timestamp;P1;durP1;ratioP1;P2;durP2;ratioP2
51529;SDS011;37613;51.788;21.582;2023-04-06T00:03:56;7.60;;;3.90;;
51529;SDS011;37613;51.788;21.582;2023-04-06T00:08:00;9.50;;;4.40;;
51529;SDS011;37613;51.788;21.582;2023-04-06T00:12:02;9.10;;;4.60;;
51529;SDS011;37613;51.788;21.582;2023-04-06T00:16:05;6.00;;;3.90;;
51529;SDS011;37613;51.788;21.582;2023-04-06T00:20:15;6.40;;;4.20;;
51529;SDS011;37613;51.788;21.582;2023-04-06T00:24:26;7.80;;;5.00;;
51529;SDS011;37613;51.788;21.582;2023-04-06T00:28:29;9.10;;;5.60;;
51529;SDS011;37613;51.788;21.582;2023-04-06T00:32:31;11.00;;;5.20;;
51529;SDS011;37613;51.788;21.582;2023-04-06T00:36:35;7.70;;;4.40;;
51529;SDS011;37613;51.788;21.582;2023-04-06T00:40:47;8.40;;;4.90;;
51529;SDS011;37613;51.788;21.582;2023-04-06T00:44:54;12.20;;;5.10;;
51529;SDS011;37613;51.788;21.582;2023-04-06T00:49:01;8.90;;;4.70;;
51529;SDS011;37613;51.788;21.582;2023-04-06T00:53:11;11.50;;;5.40;;
51529;SDS011;37613;51.788;21.582;2023-04-06T00:57:17;12.10;;;5.50;;
51529;SDS011;37613;51.788;21.582;2023-04-06T01:01:20;7.60;;;4.50;;
51529;SDS011;37613;51.788;21.582;2023-04-06T01:05:22;12.00;;;5.40;;
51529;SDS011;37613;51.788;21.582;2023-04-06T01:09:24;13.80;;;5.80;;
51529;SDS011;37613;51.788;21.582;2023-04-06T01:13:35;11.30;;;5.50;;
51529;SDS011;37613;51.788;21.582;2023-04-06T01:17:38;11.40;;;5.50;;
51529;SDS011;37613;51.788;21.582;2023-04-06T01:21:44;9.00;;;4.80;;
51529;SDS011;37613;51.788;21.582;2023-04-06T01:25:54;11.30;;;4.90;;
51529;SDS011;37613;51.788;21.582;2023-04-06T01:29:56;10.90;;;5.70;;
51529;SDS011;37613;51.788;21.582;2023-04-06T01:34:04;11.00;;;5.80;;
51529;SDS011;37613;51.788;21.582;2023-04-06T01:38:15;14.30;;;6.10;;
51529;SDS011;37613;51.788;21.582;2023-04-06T01:42:17;10.80;;;5.50;;
51529;SDS011;37613;51.788;21.582;2023-04-06T01:46:19;11.60;;;5.40;;
51529;SDS011;37613;51.788;21.582;2023-04-06T01:50:26;11.30;;;5.90;;
51529;SDS011;37613;51.788;21.582;2023-04-06T01:54:31;10.30;;;5.50;;
51529;SDS011;37613;51.788;21.582;2023-04-06T01:58:42;12.00;;;5.40;;
51529;SDS011;37613;51.788;21.582;2023-04-06T02:02:54;14.90;;;5.90;;
51529;SDS011;37613;51.788;21.582;2023-04-06T02:07:07;12.30;;;5.80;;
51529;SDS011;37613;51.788;21.582;2023-04-06T02:11:23;10.10;;;5.50;;
51529;SDS011;37613;51.788;21.582;2023-04-06T02:15:30;8.90;;;5.20;;
51529;SDS011;37613;51.788;21.582;2023-04-06T02:23:57;11.30;;;5.40;;
51529;SDS011;37613;51.788;21.582;2023-04-06T02:28:02;11.70;;;5.90;;
51529;SDS011;37613;51.788;21.582;2023-04-06T02:32:05;12.20;;;6.00;;
51529;SDS011;37613;51.788;21.582;2023-04-06T02:36:07;11.60;;;6.10;;
51529;SDS011;37613;51.788;21.582;2023-04-06T02:40:19;11.70;;;6.10;;
51529;SDS011;37613;51.788;21.582;2023-04-06T02:44:22;12.40;;;6.30;;
51529;SDS011;37613;51.788;21.582;2023-04-06T02:48:24;12.60;;;5.70;;
51529;SDS011;37613;51.788;21.582;2023-04-06T02:52:27;13.20;;;6.90;;
51529;SDS011;37613;51.788;21.582;2023-04-06T02:56:29;12.80;;;6.60;;
51529;SDS011;37613;51.788;21.582;2023-04-06T03:00:31;10.20;;;5.10;;
51529;SDS011;37613;51.788;21.582;2023-04-06T03:04:33;13.50;;;6.20;;
51529;SDS011;37613;51.788;21.582;2023-04-06T03:08:40;9.90;;;5.60;;
51529;SDS011;37613;51.788;21.582;2023-04-06T03:12:42;9.10;;;5.50;;
51529;SDS011;37613;51.788;21.582;2023-04-06T03:16:46;9.80;;;5.30;;
51529;SDS011;37613;51.788;21.582;2023-04-06T03:20:47;12.30;;;5.90;;
51529;SDS011;37613;51.788;21.582;2023-04-06T03:24:49;10.10;;;5.50;;
51529;SDS011;37613;51.788;21.582;2023-04-06T03:28:51;14.30;;;6.20;;
51529;SDS011;37613;51.788;21.582;2023-04-06T03:32:54;10.70;;;5.70;;
51529;SDS011;37613;51.788;21.582;2023-04-06T03:36:57;10.40;;;6.20;;
51529;SDS011;37613;51.788;21.582;2023-04-06T03:40:59;11.80;;;5.90;;
51529;SDS011;37613;51.788;21.582;2023-04-06T03:45:04;7.30;;;4.50;;
51529;SDS011;37613;51.788;21.582;2023-04-06T03:49:07;11.60;;;5.50;;
51529;SDS011;37613;51.788;21.582;2023-04-06T03:53:08;12.80;;;5.90;;
51529;SDS011;37613;51.788;21.582;2023-04-06T03:57:13;10.30;;;5.40;;
51529;SDS011;37613;51.788;21.582;2023-04-06T04:01:24;10.60;;;4.60;;
51529;SDS011;37613;51.788;21.582;2023-04-06T04:05:38;11.20;;;5.60;;
51529;SDS011;37613;51.788;21.582;2023-04-06T04:09:40;13.80;;;7.40;;
51529;SDS011;37613;51.788;21.582;2023-04-06T04:13:42;12.50;;;5.60;;
51529;SDS011;37613;51.788;21.582;2023-04-06T04:17:45;13.50;;;6.40;;
51529;SDS011;37613;51.788;21.582;2023-04-06T04:21:50;9.00;;;5.10;;
51529;SDS011;37613;51.788;21.582;2023-04-06T04:25:52;9.70;;;5.90;;
51529;SDS011;37613;51.788;21.582;2023-04-06T04:30:00;10.40;;;5.10;;
51529;SDS011;37613;51.788;21.582;2023-04-06T04:34:23;10.80;;;6.60;;
51529;SDS011;37613;51.788;21.582;2023-04-06T04:38:44;12.30;;;5.50;;
51529;SDS011;37613;51.788;21.582;2023-04-06T04:42:52;10.90;;;5.20;;
51529;SDS011;37613;51.788;21.582;2023-04-06T04:47:12;12.20;;;5.80;;
51529;SDS011;37613;51.788;21.582;2023-04-06T04:51:29;10.10;;;5.50;;
51529;SDS011;37613;51.788;21.582;2023-04-06T06:36:49;8.50;;;5.10;;
51529;SDS011;37613;51.788;21.582;2023-04-06T07:18:34;9.30;;;5.20;;
51529;SDS011;37613;51.788;21.582;2023-04-06T07:22:37;8.80;;;4.30;;
51529;SDS011;37613;51.788;21.582;2023-04-06T07:26:40;8.90;;;3.90;;
51529;SDS011;37613;51.788;21.582;2023-04-06T07:30:41;8.50;;;4.10;;
51529;SDS011;37613;51.788;21.582;2023-04-06T07:34:43;20.70;;;11.40;;
51529;SDS011;37613;51.788;21.582;2023-04-06T07:38:46;7.90;;;4.90;;
51529;SDS011;37613;51.788;21.582;2023-04-06T07:42:49;11.20;;;4.90;;
51529;SDS011;37613;51.788;21.582;2023-04-06T07:46:51;7.90;;;4.90;;
51529;SDS011;37613;51.788;21.582;2023-04-06T07:51:00;7.00;;;4.30;;
51529;SDS011;37613;51.788;21.582;2023-04-06T07:55:06;11.10;;;5.70;;
51529;SDS011;37613;51.788;21.582;2023-04-06T07:59:17;8.90;;;4.10;;
51529;SDS011;37613;51.788;21.582;2023-04-06T08:03:27;8.30;;;5.80;;
51529;SDS011;37613;51.788;21.582;2023-04-06T08:07:45;10.50;;;6.60;;
51529;SDS011;37613;51.788;21.582;2023-04-06T08:11:53;8.60;;;5.20;;
51529;SDS011;37613;51.788;21.582;2023-04-06T08:16:01;11.20;;;4.60;;
51529;SDS011;37613;51.788;21.582;2023-04-06T08:20:03;8.10;;;4.40;;
51529;SDS011;37613;51.788;21.582;2023-04-06T08:24:18;9.70;;;4.10;;
51529;SDS011;37613;51.788;21.582;2023-04-06T08:28:31;12.50;;;5.60;;
51529;SDS011;37613;51.788;21.582;2023-04-06T08:32:36;9.00;;;4.60;;
51529;SDS011;37613;51.788;21.582;2023-04-06T08:36:46;10.10;;;4.70;;
51529;SDS011;37613;51.788;21.582;2023-04-06T08:41:02;7.10;;;4.10;;
51529;SDS011;37613;51.788;21.582;2023-04-06T08:45:25;9.80;;;4.60;;
51529;SDS011;37613;51.788;21.582;2023-04-06T08:49:42;6.60;;;3.90;;
51529;SDS011;37613;51.788;21.582;2023-04-06T08:54:17;6.30;;;4.20;;
51529;SDS011;37613;51.788;21.582;2023-04-06T08:58:24;10.30;;;4.90;;
51529;SDS011;37613;51.788;21.582;2023-04-06T09:02:29;8.40;;;4.20;;
51529;SDS011;37613;51.788;21.582;2023-04-06T09:06:43;9.70;;;3.90;;
51529;SDS011;37613;51.788;21.582;2023-04-06T09:10:59;13.40;;;5.60;;
51529;SDS011;37613;51.788;21.582;2023-04-06T09:15:16;6.70;;;4.10;;
51529;SDS011;37613;51.788;21.582;2023-04-06T09:19:28;5.60;;;4.10;;
51529;SDS011;37613;51.788;21.582;2023-04-06T09:24:03;7.00;;;4.00;;
51529;SDS011;37613;51.788;21.582;2023-04-06T09:28:09;8.50;;;3.80;;
51529;SDS011;37613;51.788;21.582;2023-04-06T09:32:22;7.40;;;4.10;;
51529;SDS011;37613;51.788;21.582;2023-04-06T09:36:35;7.70;;;4.00;;
51529;SDS011;37613;51.788;21.582;2023-04-06T09:40:48;6.60;;;3.50;;
51529;SDS011;37613;51.788;21.582;2023-04-06T09:50:11;8.10;;;5.00;;
51529;SDS011;37613;51.788;21.582;2023-04-06T09:54:55;9.60;;;4.20;;
51529;SDS011;37613;51.788;21.582;2023-04-06T10:08:35;7.70;;;4.90;;
51529;SDS011;37613;51.788;21.582;2023-04-06T10:12:50;8.60;;;5.20;;
51529;SDS011;37613;51.788;21.582;2023-04-06T10:16:58;7.70;;;4.70;;
51529;SDS011;37613;51.788;21.582;2023-04-06T10:25:56;8.10;;;5.40;;
51529;SDS011;37613;51.788;21.582;2023-04-06T10:30:14;8.30;;;5.40;;
51529;SDS011;37613;51.788;21.582;2023-04-06T10:34:33;7.70;;;4.60;;
51529;SDS011;37613;51.788;21.582;2023-04-06T10:38:47;9.20;;;5.00;;
51529;SDS011;37613;51.788;21.582;2023-04-06T10:43:22;10.20;;;5.70;;
51529;SDS011;37613;51.788;21.582;2023-04-06T10:47:40;10.10;;;5.30;;
51529;SDS011;37613;51.788;21.582;2023-04-06T10:51:42;10.60;;;5.80;;
51529;SDS011;37613;51.788;21.582;2023-04-06T10:55:50;10.40;;;5.70;;
51529;SDS011;37613;51.788;21.582;2023-04-06T11:00:08;9.70;;;5.50;;
51529;SDS011;37613;51.788;21.582;2023-04-06T11:04:11;10.70;;;5.40;;
51529;SDS011;37613;51.788;21.582;2023-04-06T11:08:33;11.80;;;5.60;;
51529;SDS011;37613;51.788;21.582;2023-04-06T11:12:43;9.00;;;5.20;;
51529;SDS011;37613;51.788;21.582;2023-04-06T11:16:53;9.00;;;5.30;;
51529;SDS011;37613;51.788;21.582;2023-04-06T11:21:01;11.80;;;6.40;;
51529;SDS011;37613;51.788;21.582;2023-04-06T11:25:14;8.40;;;4.60;;
51529;SDS011;37613;51.788;21.582;2023-04-06T11:29:32;9.30;;;5.80;;
51529;SDS011;37613;51.788;21.582;2023-04-06T11:33:45;8.80;;;5.20;;
51529;SDS011;37613;51.788;21.582;2023-04-06T11:38:12;18.60;;;7.90;;
51529;SDS011;37613;51.788;21.582;2023-04-06T11:42:28;13.50;;;7.00;;
51529;SDS011;37613;51.788;21.582;2023-04-06T11:51:41;12.20;;;6.40;;
51529;SDS011;37613;51.788;21.582;2023-04-06T12:05:39;11.40;;;6.60;;
51529;SDS011;37613;51.788;21.582;2023-04-06T12:14:18;15.40;;;8.20;;
51529;SDS011;37613;51.788;21.582;2023-04-06T12:18:38;13.60;;;6.50;;
51529;SDS011;37613;51.788;21.582;2023-04-06T12:23:30;12.70;;;7.00;;
51529;SDS011;37613;51.788;21.582;2023-04-06T12:27:54;12.50;;;7.00;;
51529;SDS011;37613;51.788;21.582;2023-04-06T12:37:11;12.90;;;6.80;;
51529;SDS011;37613;51.788;21.582;2023-04-06T12:42:05;13.10;;;7.60;;
51529;SDS011;37613;51.788;21.582;2023-04-06T12:46:36;12.60;;;6.50;;
51529;SDS011;37613;51.788;21.582;2023-04-06T12:51:26;22.90;;;10.60;;
51529;SDS011;37613;51.788;21.582;2023-04-06T13:05:14;12.30;;;8.40;;
51529;SDS011;37613;51.788;21.582;2023-04-06T13:09:45;14.70;;;7.50;;
51529;SDS011;37613;51.788;21.582;2023-04-06T13:14:35;14.00;;;7.60;;
51529;SDS011;37613;51.788;21.582;2023-04-06T13:23:33;14.50;;;7.30;;
51529;SDS011;37613;51.788;21.582;2023-04-06T13:37:35;15.90;;;8.40;;
51529;SDS011;37613;51.788;21.582;2023-04-06T13:42:17;13.70;;;7.80;;
51529;SDS011;37613;51.788;21.582;2023-04-06T13:46:53;14.10;;;8.50;;
51529;SDS011;37613;51.788;21.582;2023-04-06T13:55:51;11.30;;;7.90;;
51529;SDS011;37613;51.788;21.582;2023-04-06T14:00:45;18.20;;;8.30;;
51529;SDS011;37613;51.788;21.582;2023-04-06T14:10:03;16.00;;;8.80;;
51529;SDS011;37613;51.788;21.582;2023-04-06T14:19:14;16.90;;;9.00;;
51529;SDS011;37613;51.788;21.582;2023-04-06T14:33:43;18.10;;;9.20;;
51529;SDS011;37613;51.788;21.582;2023-04-06T14:38:29;16.20;;;8.70;;
51529;SDS011;37613;51.788;21.582;2023-04-06T14:47:53;20.10;;;10.10;;
51529;SDS011;37613;51.788;21.582;2023-04-06T14:52:30;16.90;;;9.90;;
51529;SDS011;37613;51.788;21.582;2023-04-06T15:02:38;17.30;;;11.10;;
51529;SDS011;37613;51.788;21.582;2023-04-06T15:06:48;13.00;;;8.50;;
51529;SDS011;37613;51.788;21.582;2023-04-06T15:11:31;15.40;;;8.00;;
51529;SDS011;37613;51.788;21.582;2023-04-06T15:16:32;13.50;;;7.80;;
51529;SDS011;37613;51.788;21.582;2023-04-06T15:21:02;14.10;;;8.60;;
51529;SDS011;37613;51.788;21.582;2023-04-06T15:35:21;14.00;;;9.30;;
51529;SDS011;37613;51.788;21.582;2023-04-06T15:40:00;18.60;;;10.20;;
51529;SDS011;37613;51.788;21.582;2023-04-06T15:44:37;19.40;;;11.70;;
51529;SDS011;37613;51.788;21.582;2023-04-06T15:49:04;19.30;;;11.30;;
51529;SDS011;37613;51.788;21.582;2023-04-06T15:53:31;12.40;;;8.10;;
51529;SDS011;37613;51.788;21.582;2023-04-06T16:03:28;15.30;;;9.90;;
51529;SDS011;37613;51.788;21.582;2023-04-06T16:18:29;18.90;;;11.00;;
51529;SDS011;37613;51.788;21.582;2023-04-06T16:23:03;19.40;;;11.60;;
51529;SDS011;37613;51.788;21.582;2023-04-06T16:27:38;22.20;;;11.10;;
51529;SDS011;37613;51.788;21.582;2023-04-06T16:32:28;16.40;;;10.90;;
51529;SDS011;37613;51.788;21.582;2023-04-06T16:36:56;19.90;;;11.00;;
51529;SDS011;37613;51.788;21.582;2023-04-06T16:42:06;13.20;;;8.40;;
51529;SDS011;37613;51.788;21.582;2023-04-06T16:46:37;13.50;;;8.40;;
51529;SDS011;37613;51.788;21.582;2023-04-06T16:51:15;13.20;;;9.20;;
51529;SDS011;37613;51.788;21.582;2023-04-06T17:00:20;16.60;;;11.00;;
51529;SDS011;37613;51.788;21.582;2023-04-06T17:04:42;15.90;;;11.10;;
51529;SDS011;37613;51.788;21.582;2023-04-06T17:09:12;14.70;;;9.80;;
51529;SDS011;37613;51.788;21.582;2023-04-06T17:18:09;18.60;;;10.40;;
51529;SDS011;37613;51.788;21.582;2023-04-06T17:32:37;25.60;;;15.10;;
51529;SDS011;37613;51.788;21.582;2023-04-06T17:37:39;30.10;;;18.50;;
51529;SDS011;37613;51.788;21.582;2023-04-06T17:47:06;18.50;;;11.00;;
51529;SDS011;37613;51.788;21.582;2023-04-06T17:51:28;28.40;;;14.90;;
51529;SDS011;37613;51.788;21.582;2023-04-06T18:01:08;22.20;;;12.60;;
51529;SDS011;37613;51.788;21.582;2023-04-06T18:05:30;22.50;;;12.70;;
51529;SDS011;37613;51.788;21.582;2023-04-06T18:10:16;19.50;;;11.30;;
51529;SDS011;37613;51.788;21.582;2023-04-06T18:24:23;25.00;;;14.40;;
51529;SDS011;37613;51.788;21.582;2023-04-06T18:29:12;25.80;;;16.40;;
51529;SDS011;37613;51.788;21.582;2023-04-06T18:38:50;18.30;;;12.60;;
51529;SDS011;37613;51.788;21.582;2023-04-06T18:48:43;19.70;;;15.00;;
51529;SDS011;37613;51.788;21.582;2023-04-06T18:54:01;17.20;;;12.00;;
51529;SDS011;37613;51.788;21.582;2023-04-06T19:03:16;23.60;;;15.70;;
51529;SDS011;37613;51.788;21.582;2023-04-06T19:08:02;18.80;;;14.40;;
51529;SDS011;37613;51.788;21.582;2023-04-06T19:13:11;17.20;;;12.80;;
51529;SDS011;37613;51.788;21.582;2023-04-06T19:18:01;17.40;;;12.40;;
51529;SDS011;37613;51.788;21.582;2023-04-06T19:22:32;18.30;;;13.60;;
51529;SDS011;37613;51.788;21.582;2023-04-06T19:31:31;16.80;;;12.50;;
51529;SDS011;37613;51.788;21.582;2023-04-06T19:40:44;16.40;;;12.90;;
51529;SDS011;37613;51.788;21.582;2023-04-06T19:50:56;17.20;;;12.80;;
51529;SDS011;37613;51.788;21.582;2023-04-06T19:55:18;23.10;;;15.20;;
51529;SDS011;37613;51.788;21.582;2023-04-06T20:04:07;22.00;;;15.60;;
51529;SDS011;37613;51.788;21.582;2023-04-06T20:08:37;22.90;;;14.20;;
51529;SDS011;37613;51.788;21.582;2023-04-06T20:17:33;17.90;;;13.90;;
51529;SDS011;37613;51.788;21.582;2023-04-06T20:22:30;19.80;;;15.30;;
51529;SDS011;37613;51.788;21.582;2023-04-06T20:27:11;26.70;;;16.50;;
51529;SDS011;37613;51.788;21.582;2023-04-06T20:32:30;39.30;;;22.70;;
51529;SDS011;37613;51.788;21.582;2023-04-06T20:37:14;30.20;;;18.90;;
51529;SDS011;37613;51.788;21.582;2023-04-06T20:41:52;26.90;;;18.40;;
51529;SDS011;37613;51.788;21.582;2023-04-06T20:46:28;29.70;;;18.50;;
51529;SDS011;37613;51.788;21.582;2023-04-06T20:50:59;30.70;;;17.30;;
51529;SDS011;37613;51.788;21.582;2023-04-06T20:55:30;30.80;;;19.30;;
51529;SDS011;37613;51.788;21.582;2023-04-06T21:00:37;27.80;;;17.80;;
51529;SDS011;37613;51.788;21.582;2023-04-06T21:10:10;35.00;;;19.70;;
51529;SDS011;37613;51.788;21.582;2023-04-06T21:14:37;30.10;;;19.40;;
51529;SDS011;37613;51.788;21.582;2023-04-06T21:18:58;37.10;;;21.20;;
51529;SDS011;37613;51.788;21.582;2023-04-06T21:23:36;44.00;;;25.40;;
51529;SDS011;37613;51.788;21.582;2023-04-06T21:27:55;39.80;;;25.10;;
51529;SDS011;37613;51.788;21.582;2023-04-06T21:32:25;40.70;;;26.70;;
51529;SDS011;37613;51.788;21.582;2023-04-06T21:36:42;50.80;;;28.20;;
51529;SDS011;37613;51.788;21.582;2023-04-06T21:41:26;42.10;;;26.30;;
51529;SDS011;37613;51.788;21.582;2023-04-06T21:46:16;40.30;;;25.00;;
51529;SDS011;37613;51.788;21.582;2023-04-06T21:51:55;36.50;;;22.70;;
51529;SDS011;37613;51.788;21.582;2023-04-06T21:56:38;41.80;;;24.90;;
51529;SDS011;37613;51.788;21.582;2023-04-06T22:01:00;39.60;;;25.20;;
51529;SDS011;37613;51.788;21.582;2023-04-06T22:05:21;39.30;;;25.00;;
51529;SDS011;37613;51.788;21.582;2023-04-06T22:09:50;42.00;;;25.80;;
51529;SDS011;37613;51.788;21.582;2023-04-06T22:19:02;33.30;;;20.70;;
51529;SDS011;37613;51.788;21.582;2023-04-06T22:28:24;37.00;;;22.60;;
51529;SDS011;37613;51.788;21.582;2023-04-06T22:32:54;32.90;;;20.70;;
51529;SDS011;37613;51.788;21.582;2023-04-06T22:37:12;33.20;;;21.90;;
51529;SDS011;37613;51.788;21.582;2023-04-06T22:41:31;31.20;;;20.40;;
51529;SDS011;37613;51.788;21.582;2023-04-06T22:46:08;33.40;;;20.40;;
51529;SDS011;37613;51.788;21.582;2023-04-06T22:50:41;28.40;;;19.10;;
51529;SDS011;37613;51.788;21.582;2023-04-06T22:59:32;31.70;;;19.70;;
51529;SDS011;37613;51.788;21.582;2023-04-06T23:04:08;29.80;;;20.20;;
51529;SDS011;37613;51.788;21.582;2023-04-06T23:08:33;28.80;;;19.30;;
51529;SDS011;37613;51.788;21.582;2023-04-06T23:13:10;31.10;;;20.60;;
51529;SDS011;37613;51.788;21.582;2023-04-06T23:17:44;30.80;;;20.40;;
51529;SDS011;37613;51.788;21.582;2023-04-06T23:22:26;30.20;;;20.00;;
51529;SDS011;37613;51.788;21.582;2023-04-06T23:26:50;32.40;;;20.20;;
51529;SDS011;37613;51.788;21.582;2023-04-06T23:31:24;32.20;;;20.50;;
51529;SDS011;37613;51.788;21.582;2023-04-06T23:36:42;33.50;;;22.10;;
51529;SDS011;37613;51.788;21.582;2023-04-06T23:41:11;33.30;;;20.60;;
51529;SDS011;37613;51.788;21.582;2023-04-06T23:50:19;33.70;;;22.80;;
51529;SDS011;37613;51.788;21.582;2023-04-06T23:54:58;39.80;;;22.70;;
51529;SDS011;37613;51.788;21.582;2023-04-06T23:59:25;33.80;;;22.20;;
